Back to top

Rawlins, WY weather

Rawlins Municipal Airport/Harvey Field, Rawlins, WY: 1/20/2020 03:53
Visibility10 statute milesclear sky
View 7-Day Forecast
Area Summary
Sky/CloudsSky Clear
Weather [last 24 hours]None
Pressure30.42 in.Hg (1030 hPa)
Dew Point-0.9 °F (-18.3 °C)
Relative Humidity 83 %
Temperature3 °F (-16.1 °C)blue thermometer
Reading TimeMinimum to Maximum Temperature
6-hr ending 1/19@22:538.1 °F to 24.1 °F (-13.3 °C to -4.4 °C)
6-hr ending 1/19@16:5324.1 °F to 27 °F (-4.4 °C to -2.8 °C)
6-hr ending 1/19@10:5319.9 °F to 24.1 °F (-6.7 °C to -4.4 °C)
6-hr ending 1/19@04:5319 °F to 21.9 °F (-7.2 °C to -5.6 °C)
24-hr ending 1/19@23:533 °F to 27 °F (-16.1 °C to -2.8 °C)
Wind0 MPH (0 KT) green arrow pointing at 0 degrees
Wind FromNorth (000 Degrees)
Rolling 24-hr Peak Wind32.2 MPH (28 KT) on 1/19@09:01
Rolling 24-hr Peak Wind FromWest/Southwest (250 Degrees)
Twilight Begins06:59Sunshine Yesterday
Sunrise07:29N/A
Sunset17:11
Twilight Ends17:41
METARKRWL 201053Z AUTO 00000KT 10SM CLR M16/M18 A3042 RMK AO2 SLP372 T11611183
Tags: